createdAt,value
2018-11-28T00:00:56.247Z,-4.20
2018-11-28T00:03:23.763Z,-4.30
2018-11-28T00:05:51.332Z,-4.40
2018-11-28T00:08:18.882Z,-4.30
2018-11-28T00:10:46.444Z,-4.40
2018-11-28T00:13:13.922Z,-4.30
2018-11-28T00:15:41.471Z,-4.40
2018-11-28T00:18:08.934Z,-4.40
2018-11-28T00:20:36.446Z,-4.50
2018-11-28T00:23:04.349Z,-4.50
2018-11-28T00:25:32.020Z,-4.50
2018-11-28T00:27:59.497Z,-4.50
2018-11-28T00:30:27.012Z,-4.40
2018-11-28T00:32:54.512Z,-4.40
2018-11-28T00:35:22.680Z,-4.50
2018-11-28T00:37:50.122Z,-4.60
2018-11-28T00:40:18.183Z,-4.60
2018-11-28T00:42:45.730Z,-4.60
2018-11-28T00:45:14.791Z,-4.60
2018-11-28T00:47:42.301Z,-4.60
2018-11-28T00:50:30.039Z,-4.70
2018-11-28T00:52:57.543Z,-4.60
2018-11-28T00:55:25.070Z,-4.60
2018-11-28T00:57:52.570Z,-4.70
2018-11-28T01:00:21.751Z,-4.70
2018-11-28T01:02:49.476Z,-4.80
2018-11-28T01:05:17.008Z,-4.80
2018-11-28T01:07:45.345Z,-4.80
2018-11-28T01:10:16.743Z,-4.80
2018-11-28T01:12:44.404Z,-4.80
2018-11-28T01:15:13.636Z,-4.90
2018-11-28T01:17:41.111Z,-4.90
2018-11-28T01:20:11.903Z,-4.90
2018-11-28T01:22:39.366Z,-4.90
2018-11-28T01:25:09.252Z,-4.90
2018-11-28T01:27:37.289Z,-4.90
2018-11-28T01:30:09.453Z,-4.90
2018-11-28T01:32:37.027Z,-5.00
2018-11-28T01:35:05.819Z,-4.90
2018-11-28T01:37:33.326Z,-5.00
2018-11-28T01:40:01.335Z,-5.00
2018-11-28T01:42:28.838Z,-5.00
2018-11-28T01:44:56.723Z,-4.90
2018-11-28T01:47:24.227Z,-5.00
2018-11-28T01:49:51.702Z,-5.00
2018-11-28T01:52:19.207Z,-5.10
2018-11-28T01:54:46.659Z,-5.00
2018-11-28T01:57:14.318Z,-5.00
2018-11-28T01:59:41.838Z,-5.00
2018-11-28T02:02:09.322Z,-5.00
2018-11-28T02:04:36.851Z,-5.00
2018-11-28T02:07:05.418Z,-5.00
2018-11-28T02:09:33.319Z,-5.00
2018-11-28T02:12:01.206Z,-5.00
2018-11-28T02:14:28.687Z,-5.00
2018-11-28T02:16:56.222Z,-5.00
2018-11-28T02:19:23.698Z,-5.00
2018-11-28T02:21:51.195Z,-5.10
2018-11-28T02:24:18.647Z,-5.10
2018-11-28T02:26:46.098Z,-5.00
2018-11-28T02:29:13.602Z,-5.00
2018-11-28T02:31:41.159Z,-5.00
2018-11-28T02:34:08.747Z,-5.00
2018-11-28T02:36:36.467Z,-5.10
2018-11-28T02:39:07.733Z,-5.10
2018-11-28T02:41:35.260Z,-5.20
2018-11-28T02:44:03.061Z,-5.10
2018-11-28T02:46:31.049Z,-5.10
2018-11-28T02:48:58.545Z,-5.10
2018-11-28T02:51:26.044Z,-5.10
2018-11-28T02:53:53.679Z,-5.20
2018-11-28T02:56:21.126Z,-5.10
2018-11-28T02:58:48.578Z,-5.10
2018-11-28T03:01:16.107Z,-5.20
2018-11-28T03:03:43.595Z,-5.20
2018-11-28T03:06:11.343Z,-5.20
2018-11-28T03:08:38.902Z,-5.20
2018-11-28T03:11:06.390Z,-5.20
2018-11-28T03:13:33.878Z,-5.10
2018-11-28T03:16:02.054Z,-5.10
2018-11-28T03:18:29.596Z,-5.10
2018-11-28T03:20:57.176Z,-5.10
2018-11-28T03:23:24.769Z,-5.20
2018-11-28T03:25:52.959Z,-5.10
2018-11-28T03:28:20.481Z,-5.10
2018-11-28T03:30:48.034Z,-5.20
2018-11-28T03:33:15.644Z,-5.20
2018-11-28T03:35:43.083Z,-5.20
2018-11-28T03:38:10.584Z,-5.10
2018-11-28T03:40:38.095Z,-5.10
2018-11-28T03:43:06.135Z,-5.20
2018-11-28T03:45:33.841Z,-5.10
2018-11-28T03:50:34.650Z,-5.10
2018-11-28T03:53:02.235Z,-5.10
2018-11-28T03:55:29.775Z,-5.10
2018-11-28T03:57:57.215Z,-5.10
2018-11-28T04:00:24.689Z,-5.00
2018-11-28T04:02:52.211Z,-5.00
2018-11-28T04:05:19.628Z,-5.00
2018-11-28T04:07:47.097Z,-5.00
2018-11-28T04:10:15.131Z,-5.00
2018-11-28T04:12:43.357Z,-5.00
2018-11-28T04:15:12.269Z,-5.10
2018-11-28T04:17:39.791Z,-5.10
2018-11-28T04:20:12.195Z,-5.10
2018-11-28T04:22:39.706Z,-5.10
2018-11-28T04:25:08.380Z,-5.20
2018-11-28T04:27:35.908Z,-5.20
2018-11-28T04:30:03.941Z,-5.20
2018-11-28T04:32:31.444Z,-5.10
2018-11-28T04:34:58.927Z,-5.20
2018-11-28T04:37:26.492Z,-5.20
2018-11-28T04:39:53.998Z,-5.20
2018-11-28T04:42:21.484Z,-5.20
2018-11-28T04:44:48.934Z,-5.20
2018-11-28T04:47:16.376Z,-5.20
2018-11-28T04:49:43.827Z,-5.20
2018-11-28T04:52:11.287Z,-5.30
2018-11-28T04:54:38.703Z,-5.30
2018-11-28T04:57:06.278Z,-5.40
2018-11-28T04:59:33.689Z,-5.30
2018-11-28T05:02:01.317Z,-5.30
2018-11-28T05:04:28.721Z,-5.30
2018-11-28T05:07:29.692Z,-5.30
2018-11-28T05:09:59.795Z,-5.20
2018-11-28T05:12:27.429Z,-5.20
2018-11-28T05:14:54.933Z,-5.20
2018-11-28T05:17:22.796Z,-5.20
2018-11-28T05:19:50.348Z,-5.30
2018-11-28T05:22:17.931Z,-5.30
2018-11-28T05:24:45.450Z,-5.30
2018-11-28T05:27:13.070Z,-5.30
2018-11-28T05:29:40.514Z,-5.30
2018-11-28T05:32:08.129Z,-5.30
2018-11-28T05:34:35.566Z,-5.30
2018-11-28T05:37:05.125Z,-5.30
2018-11-28T05:39:32.623Z,-5.30
2018-11-28T05:42:00.219Z,-5.20
2018-11-28T05:44:27.732Z,-5.20
2018-11-28T05:46:55.257Z,-5.20
2018-11-28T05:49:22.746Z,-5.10
2018-11-28T05:51:50.307Z,-5.10
2018-11-28T05:54:17.779Z,-5.20
2018-11-28T05:56:45.214Z,-5.20
2018-11-28T05:59:12.702Z,-5.20
2018-11-28T06:01:40.149Z,-5.10
2018-11-28T06:04:07.660Z,-5.10
2018-11-28T06:06:35.243Z,-5.20
2018-11-28T06:09:03.136Z,-5.20
2018-11-28T06:11:30.646Z,-5.20
2018-11-28T06:13:58.175Z,-5.20
2018-11-28T06:16:25.728Z,-5.20
2018-11-28T06:18:53.147Z,-5.30
2018-11-28T06:21:20.666Z,-5.30
2018-11-28T06:23:48.210Z,-5.30
2018-11-28T06:26:15.673Z,-5.30
2018-11-28T06:28:43.214Z,-5.20
2018-11-28T06:31:10.713Z,-5.20
2018-11-28T06:33:38.320Z,-5.20
2018-11-28T06:36:05.857Z,-5.30
2018-11-28T06:38:33.327Z,-5.30
2018-11-28T06:41:01.112Z,-5.30
2018-11-28T06:43:28.649Z,-5.30
2018-11-28T06:45:56.740Z,-5.30
2018-11-28T06:48:24.186Z,-5.30
2018-11-28T06:50:51.729Z,-5.30
2018-11-28T06:53:19.381Z,-5.30
2018-11-28T06:55:46.882Z,-5.40
2018-11-28T06:58:14.497Z,-5.30
2018-11-28T07:00:42.028Z,-5.30
2018-11-28T07:03:09.533Z,-5.30
2018-11-28T07:05:37.050Z,-5.30
2018-11-28T07:08:05.909Z,-5.40
2018-11-28T07:10:33.479Z,-5.30
2018-11-28T07:13:01.869Z,-5.30
2018-11-28T07:15:29.387Z,-5.30
2018-11-28T07:18:07.078Z,-5.20
2018-11-28T07:20:34.604Z,-5.20
2018-11-28T07:23:02.596Z,-5.20
2018-11-28T07:25:30.156Z,-5.20
2018-11-28T07:27:58.074Z,-5.10
2018-11-28T07:30:25.611Z,-5.10
2018-11-28T07:32:54.895Z,-5.00
2018-11-28T07:35:22.386Z,-4.90
2018-11-28T07:37:49.883Z,-4.90
2018-11-28T07:40:19.542Z,-4.80
2018-11-28T07:42:57.920Z,-4.70
2018-11-28T07:45:25.357Z,-4.60
2018-11-28T07:47:52.837Z,-4.50
2018-11-28T07:50:20.239Z,-4.50
2018-11-28T07:52:47.654Z,-4.40
2018-11-28T07:55:15.173Z,-4.30
2018-11-28T07:57:42.561Z,-4.20
2018-11-28T08:00:12.186Z,-4.20
2018-11-28T08:02:39.951Z,-3.90
2018-11-28T08:05:08.377Z,-3.60
2018-11-28T08:07:35.809Z,-3.40
2018-11-28T08:10:03.901Z,-3.40
2018-11-28T08:12:31.319Z,-3.50
2018-11-28T08:14:58.777Z,-3.30
2018-11-28T08:17:26.214Z,-2.80
2018-11-28T08:19:53.640Z,-2.00
2018-11-28T08:22:21.127Z,-1.20
2018-11-28T08:24:48.591Z,-1.40
2018-11-28T08:27:16.037Z,-0.70
2018-11-28T08:29:48.808Z,-0.70
2018-11-28T08:32:16.254Z,-0.30
2018-11-28T08:34:43.683Z,-0.10
2018-11-28T08:37:11.112Z,0.10
2018-11-28T08:39:38.498Z,0.00
2018-11-28T08:42:05.991Z,0.40
2018-11-28T08:44:33.426Z,0.60
2018-11-28T08:47:00.895Z,0.90
2018-11-28T08:49:28.386Z,1.10
2018-11-28T08:51:55.773Z,1.30
2018-11-28T08:54:23.228Z,1.40
2018-11-28T08:56:50.650Z,1.50
2018-11-28T08:59:18.063Z,2.10
2018-11-28T09:01:45.522Z,1.60
2018-11-28T09:04:12.956Z,1.80
2018-11-28T09:06:40.496Z,1.50
2018-11-28T09:09:07.987Z,1.60
2018-11-28T09:11:35.902Z,1.60
2018-11-28T09:14:04.697Z,1.80
2018-11-28T09:16:30.819Z,2.60
2018-11-28T09:18:58.286Z,2.90
2018-11-28T09:21:25.694Z,2.90
2018-11-28T09:23:53.151Z,2.80
2018-11-28T09:26:20.595Z,3.00
2018-11-28T09:28:48.074Z,2.90
2018-11-28T09:31:15.965Z,2.80
2018-11-28T09:33:43.576Z,3.20
2018-11-28T09:36:13.947Z,3.60
2018-11-28T09:38:41.407Z,3.40
2018-11-28T09:41:08.843Z,4.10
2018-11-28T09:43:36.295Z,4.20
2018-11-28T09:46:03.766Z,4.20
2018-11-28T09:48:31.215Z,3.90
2018-11-28T09:50:58.657Z,3.50
2018-11-28T09:53:26.099Z,4.30
2018-11-28T09:55:53.541Z,4.40
2018-11-28T09:58:21.012Z,4.60
2018-11-28T10:00:48.456Z,4.80
2018-11-28T10:03:15.940Z,4.80
2018-11-28T10:05:43.411Z,5.30
2018-11-28T10:08:10.879Z,6.10
2018-11-28T10:10:38.292Z,6.40
2018-11-28T10:13:05.861Z,6.60
2018-11-28T10:15:35.781Z,6.00
2018-11-28T10:18:01.182Z,5.60
2018-11-28T10:20:28.786Z,4.70
2018-11-28T10:22:56.779Z,5.70
2018-11-28T10:25:25.079Z,6.10
2018-11-28T10:27:58.964Z,6.30
2018-11-28T10:30:29.208Z,6.30
2018-11-28T10:32:56.172Z,6.70
2018-11-28T10:35:23.643Z,6.20
2018-11-28T10:37:51.106Z,6.00
2018-11-28T10:40:20.577Z,6.30
2018-11-28T10:42:53.062Z,6.30
2018-11-28T10:47:48.294Z,6.50
2018-11-28T10:50:15.891Z,6.70
2018-11-28T10:52:43.317Z,6.80
2018-11-28T10:55:13.075Z,6.70
2018-11-28T10:57:40.544Z,6.60
2018-11-28T11:00:11.677Z,5.90
2018-11-28T11:02:39.143Z,6.40
2018-11-28T11:05:07.526Z,6.30
2018-11-28T11:07:35.011Z,6.20
2018-11-28T11:10:02.739Z,6.50
2018-11-28T11:12:30.225Z,6.50
2018-11-28T11:14:57.635Z,6.50
2018-11-28T11:17:25.042Z,6.10
2018-11-28T11:19:52.529Z,6.80
2018-11-28T11:22:20.020Z,6.70
2018-11-28T11:24:47.462Z,6.60
2018-11-28T11:27:14.920Z,6.80
2018-11-28T11:29:42.378Z,7.10
2018-11-28T11:32:09.763Z,6.90
2018-11-28T11:34:37.215Z,6.60
2018-11-28T11:37:05.095Z,7.00
2018-11-28T11:39:32.511Z,7.00
2018-11-28T11:41:59.973Z,7.20
2018-11-28T11:44:27.403Z,7.30
2018-11-28T11:46:54.819Z,7.10
2018-11-28T11:49:22.251Z,7.60
2018-11-28T11:51:49.712Z,7.90
2018-11-28T11:54:17.118Z,7.20
2018-11-28T11:56:44.562Z,8.10
2018-11-28T11:59:11.976Z,7.90
2018-11-28T12:01:39.433Z,7.20
2018-11-28T12:04:06.832Z,7.10
2018-11-28T12:06:34.264Z,7.90
2018-11-28T12:09:01.927Z,7.10
2018-11-28T12:11:29.380Z,6.30
2018-11-28T12:13:56.851Z,6.60
2018-11-28T12:16:24.300Z,6.70
2018-11-28T12:18:51.742Z,7.00
2018-11-28T12:21:19.204Z,7.30
2018-11-28T12:23:46.650Z,7.70
2018-11-28T12:26:14.194Z,7.00
2018-11-28T12:28:41.659Z,7.30
2018-11-28T12:31:09.090Z,7.70
2018-11-28T12:33:36.558Z,7.00
2018-11-28T12:36:04.168Z,7.50
2018-11-28T12:38:31.611Z,7.20
2018-11-28T12:40:59.006Z,7.30
2018-11-28T12:43:26.447Z,7.30
2018-11-28T12:45:53.862Z,7.30
2018-11-28T12:48:21.299Z,7.10
2018-11-28T12:50:48.758Z,7.20
2018-11-28T12:53:16.144Z,6.40
2018-11-28T12:55:43.619Z,6.00
2018-11-28T12:58:15.555Z,6.60
2018-11-28T13:00:42.969Z,7.10
2018-11-28T13:03:11.839Z,7.00
2018-11-28T13:05:39.319Z,6.50
2018-11-28T13:08:06.749Z,6.30
2018-11-28T13:10:35.512Z,6.20
2018-11-28T13:13:03.617Z,6.00
2018-11-28T13:15:31.067Z,5.80
2018-11-28T13:17:58.448Z,5.60
2018-11-28T13:20:25.911Z,5.70
2018-11-28T13:22:54.438Z,5.50
2018-11-28T13:25:23.751Z,5.20
2018-11-28T13:27:51.244Z,5.30
2018-11-28T13:30:19.450Z,5.10
2018-11-28T13:32:47.490Z,4.40
2018-11-28T13:35:21.789Z,4.20
2018-11-28T13:37:51.316Z,3.80
2018-11-28T13:40:19.326Z,3.30
2018-11-28T13:42:46.869Z,3.10
2018-11-28T13:45:18.248Z,3.00
2018-11-28T13:47:46.949Z,2.80
2018-11-28T13:50:14.414Z,2.70
2018-11-28T13:52:41.875Z,2.60
2018-11-28T13:55:42.992Z,2.50
2018-11-28T13:58:10.483Z,2.60
2018-11-28T14:00:38.018Z,2.40
2018-11-28T14:03:05.734Z,2.40
2018-11-28T14:05:33.251Z,2.20
2018-11-28T14:08:00.783Z,2.20
2018-11-28T14:10:28.222Z,2.20
2018-11-28T14:12:55.671Z,2.10
2018-11-28T14:15:23.206Z,2.10
2018-11-28T14:17:54.097Z,2.00
2018-11-28T14:20:21.583Z,2.00
2018-11-28T14:22:49.087Z,1.90
2018-11-28T14:25:16.611Z,1.80
2018-11-28T14:27:44.181Z,1.80
2018-11-28T14:30:13.933Z,1.70
2018-11-28T14:32:41.435Z,1.70
2018-11-28T14:35:09.882Z,1.70
2018-11-28T14:37:37.436Z,1.70
2018-11-28T14:40:09.654Z,1.60
2018-11-28T14:42:37.197Z,1.50
2018-11-28T14:45:08.034Z,1.50
2018-11-28T14:47:35.520Z,1.40
2018-11-28T14:50:03.758Z,1.40
2018-11-28T14:52:31.286Z,1.30
2018-11-28T14:54:58.782Z,1.30
2018-11-28T14:57:26.358Z,1.30
2018-11-28T14:59:53.745Z,1.30
2018-11-28T15:02:21.251Z,1.40
2018-11-28T15:04:48.853Z,1.40
2018-11-28T15:07:16.527Z,1.40
2018-11-28T15:09:44.294Z,1.30
2018-11-28T15:12:12.870Z,1.30
2018-11-28T15:14:40.350Z,1.10
2018-11-28T15:17:07.923Z,1.00
2018-11-28T15:19:35.389Z,1.00
2018-11-28T15:22:03.184Z,0.90
2018-11-28T15:24:30.686Z,0.90
2018-11-28T15:26:58.185Z,0.90
2018-11-28T15:29:25.664Z,0.90
2018-11-28T15:31:53.087Z,0.90
2018-11-28T15:34:20.521Z,0.80
2018-11-28T15:36:48.051Z,0.80
2018-11-28T15:39:15.672Z,0.80
2018-11-28T15:41:43.429Z,0.70
2018-11-28T15:44:10.989Z,0.60
2018-11-28T15:46:38.692Z,0.70
2018-11-28T15:49:06.727Z,0.70
2018-11-28T15:51:34.229Z,0.70
2018-11-28T15:54:01.891Z,0.60
2018-11-28T15:56:29.447Z,0.60
2018-11-28T15:58:57.022Z,0.60
2018-11-28T16:01:24.526Z,0.60
2018-11-28T16:03:53.012Z,0.60
2018-11-28T16:06:20.490Z,0.50
2018-11-28T16:08:47.913Z,0.50
2018-11-28T16:11:16.831Z,0.40
2018-11-28T16:13:44.287Z,0.30
2018-11-28T16:16:11.852Z,0.40
2018-11-28T16:18:39.302Z,0.40
2018-11-28T16:21:06.778Z,0.40
2018-11-28T16:23:34.473Z,0.40
2018-11-28T16:26:02.138Z,0.30
2018-11-28T16:28:29.630Z,0.20
2018-11-28T16:30:57.115Z,0.20
2018-11-28T16:33:24.595Z,0.20
2018-11-28T16:35:52.107Z,0.10
2018-11-28T16:38:19.605Z,0.00
2018-11-28T16:40:47.195Z,0.00
2018-11-28T16:43:14.752Z,0.00
2018-11-28T16:45:42.210Z,0.00
2018-11-28T16:48:09.735Z,0.00
2018-11-28T16:50:37.270Z,-0.10
2018-11-28T16:53:05.335Z,-0.10
2018-11-28T16:55:32.942Z,-0.10
2018-11-28T16:58:01.194Z,0.00
2018-11-28T17:00:30.281Z,-0.10
2018-11-28T17:02:57.747Z,-0.10
2018-11-28T17:05:25.358Z,0.00
2018-11-28T17:07:53.232Z,-0.10
2018-11-28T17:10:23.965Z,-0.10
2018-11-28T17:12:52.082Z,-0.20
2018-11-28T17:15:19.830Z,-0.20
2018-11-28T17:17:47.304Z,-0.10
2018-11-28T17:20:15.706Z,-0.20
2018-11-28T17:22:43.439Z,-0.20
2018-11-28T17:25:13.266Z,-0.20
2018-11-28T17:27:40.703Z,-0.10
2018-11-28T17:30:11.147Z,-0.10
2018-11-28T17:32:38.659Z,-0.20
2018-11-28T17:35:07.518Z,-0.30
2018-11-28T17:37:35.006Z,-0.30
2018-11-28T17:40:02.719Z,-0.30
2018-11-28T17:42:30.198Z,-0.30
2018-11-28T17:44:57.747Z,-0.30
2018-11-28T17:47:25.343Z,-0.30
2018-11-28T17:49:52.866Z,-0.30
2018-11-28T17:52:20.441Z,-0.30
2018-11-28T17:54:48.001Z,-0.40
2018-11-28T17:57:15.608Z,-0.40
2018-11-28T17:59:43.279Z,-0.30
2018-11-28T18:02:10.910Z,-0.30
2018-11-28T18:04:38.529Z,-0.30
2018-11-28T18:07:06.048Z,-0.30
2018-11-28T18:09:33.619Z,-0.30
2018-11-28T18:12:01.227Z,-0.30
2018-11-28T18:14:28.822Z,-0.40
2018-11-28T18:16:56.381Z,-0.30
2018-11-28T18:19:23.961Z,-0.30
2018-11-28T18:21:51.393Z,-0.30
2018-11-28T18:24:18.931Z,-0.20
2018-11-28T18:26:46.517Z,-0.30
2018-11-28T18:29:14.035Z,-0.30
2018-11-28T18:31:41.699Z,-0.30
2018-11-28T18:34:09.301Z,-0.20
2018-11-28T18:36:36.807Z,-0.20
2018-11-28T18:39:06.979Z,-0.30
2018-11-28T18:41:34.776Z,-0.30
2018-11-28T18:44:02.447Z,-0.30
2018-11-28T18:46:29.939Z,-0.30
2018-11-28T18:48:57.450Z,-0.30
2018-11-28T18:51:24.915Z,-0.20
2018-11-28T18:53:52.343Z,-0.20
2018-11-28T18:56:19.829Z,-0.10
2018-11-28T18:58:47.305Z,-0.20
2018-11-28T19:01:14.916Z,-0.20
2018-11-28T19:03:42.470Z,-0.20
2018-11-28T19:06:09.996Z,-0.30
2018-11-28T19:08:38.855Z,-0.30
2018-11-28T19:11:06.341Z,-0.30
2018-11-28T19:13:33.787Z,-0.40
2018-11-28T19:16:02.376Z,-0.40
2018-11-28T19:18:29.851Z,-0.40
2018-11-28T19:20:57.406Z,-0.40
2018-11-28T19:23:24.916Z,-0.40
2018-11-28T19:25:52.422Z,-0.40
2018-11-28T19:28:19.949Z,-0.40
2018-11-28T19:30:47.718Z,-0.30
2018-11-28T19:33:15.724Z,-0.40
2018-11-28T19:35:43.231Z,-0.30
2018-11-28T19:38:14.465Z,-0.30
2018-11-28T19:40:50.739Z,-0.40
2018-11-28T19:43:18.282Z,-0.40
2018-11-28T19:45:45.855Z,-0.40
2018-11-28T19:48:13.328Z,-0.40
2018-11-28T19:50:41.079Z,-0.40
2018-11-28T19:53:09.079Z,-0.40
2018-11-28T19:55:36.547Z,-0.40
2018-11-28T19:58:04.378Z,-0.40
2018-11-28T20:00:31.935Z,-0.40
2018-11-28T20:02:59.515Z,-0.30
2018-11-28T20:05:27.579Z,-0.20
2018-11-28T20:07:55.112Z,-0.40
2018-11-28T20:10:23.004Z,-0.40
2018-11-28T20:12:50.788Z,-0.40
2018-11-28T20:15:21.903Z,-0.40
2018-11-28T20:17:50.203Z,-0.30
2018-11-28T20:20:17.918Z,-0.40
2018-11-28T20:22:45.471Z,-0.40
2018-11-28T20:25:15.202Z,-0.40
2018-11-28T20:27:45.286Z,-0.40
2018-11-28T20:30:45.727Z,-0.30
2018-11-28T20:33:14.337Z,-0.40
2018-11-28T20:35:42.895Z,-0.40
2018-11-28T20:38:20.369Z,-0.40
2018-11-28T20:40:47.790Z,-0.40
2018-11-28T20:43:15.233Z,-0.50
2018-11-28T20:45:42.722Z,-0.50
2018-11-28T20:48:10.172Z,-0.40
2018-11-28T20:50:37.563Z,-0.40
2018-11-28T20:53:09.527Z,-0.40
2018-11-28T20:55:37.211Z,-0.40
2018-11-28T20:58:05.041Z,-0.40
2018-11-28T21:00:32.538Z,-0.40
2018-11-28T21:03:00.016Z,-0.40
2018-11-28T21:05:27.819Z,-0.30
2018-11-28T21:07:55.256Z,-0.40
2018-11-28T21:10:22.792Z,-0.30
2018-11-28T21:12:50.213Z,-0.30
2018-11-28T21:15:17.655Z,-0.30
2018-11-28T21:17:45.517Z,-0.30
2018-11-28T21:20:17.699Z,-0.30
2018-11-28T21:22:53.268Z,-0.30
2018-11-28T21:25:20.712Z,-0.30
2018-11-28T21:27:48.296Z,-0.30
2018-11-28T21:30:17.667Z,-0.30
2018-11-28T21:32:45.131Z,-0.30
2018-11-28T21:35:14.718Z,-0.40
2018-11-28T21:37:42.153Z,-0.30
2018-11-28T21:40:10.145Z,-0.30
2018-11-28T21:42:37.530Z,-0.40
2018-11-28T21:45:08.518Z,-0.40
2018-11-28T21:47:35.963Z,-0.30
2018-11-28T21:50:03.946Z,-0.40
2018-11-28T21:52:31.392Z,-0.40
2018-11-28T21:54:58.778Z,-0.40
2018-11-28T21:57:26.236Z,-0.40
2018-11-28T21:59:53.685Z,-0.40
2018-11-28T22:02:21.147Z,-0.40
2018-11-28T22:04:48.570Z,-0.50
2018-11-28T22:07:16.224Z,-0.50
2018-11-28T22:09:43.683Z,-0.50
2018-11-28T22:12:11.758Z,-0.50
2018-11-28T22:14:39.199Z,-0.50
2018-11-28T22:17:06.717Z,-0.50
2018-11-28T22:19:34.319Z,-0.50
2018-11-28T22:22:01.941Z,-0.50
2018-11-28T22:24:29.393Z,-0.50
2018-11-28T22:26:56.927Z,-0.50
2018-11-28T22:29:24.360Z,-0.50
2018-11-28T22:31:51.783Z,-0.50
2018-11-28T22:34:19.218Z,-0.50
2018-11-28T22:36:46.642Z,-0.60
2018-11-28T22:39:14.077Z,-0.60
2018-11-28T22:41:41.482Z,-0.60
2018-11-28T22:44:09.065Z,-0.60
2018-11-28T22:46:36.493Z,-0.60
2018-11-28T22:49:04.116Z,-0.50
2018-11-28T22:51:31.604Z,-0.50
2018-11-28T22:53:59.023Z,-0.50
2018-11-28T22:56:26.451Z,-0.60
2018-11-28T22:58:53.865Z,-0.50
2018-11-28T23:01:21.308Z,-0.50
2018-11-28T23:03:48.927Z,-0.50
2018-11-28T23:06:16.411Z,-0.50
2018-11-28T23:08:43.948Z,-0.50
2018-11-28T23:11:11.470Z,-0.50
2018-11-28T23:13:39.014Z,-0.60
2018-11-28T23:18:40.374Z,-0.50
2018-11-28T23:21:07.810Z,-0.50
2018-11-28T23:23:35.237Z,-0.50
2018-11-28T23:26:02.968Z,-0.50
2018-11-28T23:28:30.415Z,-0.60
2018-11-28T23:30:57.822Z,-0.50
2018-11-28T23:33:25.316Z,-0.50
2018-11-28T23:35:52.728Z,-0.50
2018-11-28T23:38:20.174Z,-0.50
2018-11-28T23:40:47.585Z,-0.50
2018-11-28T23:43:15.039Z,-0.40
2018-11-28T23:45:42.447Z,-0.40
2018-11-28T23:48:09.891Z,-0.50
2018-11-28T23:50:37.318Z,-0.50
2018-11-28T23:53:04.920Z,-0.50
2018-11-28T23:55:32.366Z,-0.50
2018-11-28T23:57:59.758Z,-0.50
